sensor_id;sensor_type;location;lat;lon;timestamp;pressure;altitude;pressure_sealevel;temperature;humidity
64253;BME280;50592;52.958;-7.470;2022-12-07T00:00:55;101670.88;;;1.56;100.00
64253;BME280;50592;52.958;-7.470;2022-12-07T00:03:29;101670.13;;;1.52;100.00
64253;BME280;50592;52.958;-7.470;2022-12-07T00:05:57;101670.19;;;1.51;100.00
64253;BME280;50592;52.958;-7.470;2022-12-07T00:08:23;101673.78;;;1.48;100.00
64253;BME280;50592;52.958;-7.470;2022-12-07T00:10:49;101670.41;;;1.44;100.00
64253;BME280;50592;52.958;-7.470;2022-12-07T00:13:15;101673.41;;;1.33;100.00
64253;BME280;50592;52.958;-7.470;2022-12-07T00:15:41;101671.78;;;1.29;100.00
64253;BME280;50592;52.958;-7.470;2022-12-07T00:18:07;101673.50;;;1.30;100.00
64253;BME280;50592;52.958;-7.470;2022-12-07T00:20:32;101676.06;;;1.32;100.00
64253;BME280;50592;52.958;-7.470;2022-12-07T00:22:58;101671.16;;;1.22;100.00
64253;BME280;50592;52.958;-7.470;2022-12-07T00:25:25;101671.28;;;1.19;100.00
64253;BME280;50592;52.958;-7.470;2022-12-07T00:27:53;101671.34;;;1.18;100.00
64253;BME280;50592;52.958;-7.470;2022-12-07T00:30:21;101673.22;;;1.13;100.00
64253;BME280;50592;52.958;-7.470;2022-12-07T00:32:47;101671.44;;;1.15;100.00
64253;BME280;50592;52.958;-7.470;2022-12-07T00:35:13;101675.72;;;1.16;100.00
64253;BME280;50592;52.958;-7.470;2022-12-07T00:37:39;101676.53;;;1.18;100.00
64253;BME280;50592;52.958;-7.470;2022-12-07T00:40:05;101671.44;;;1.15;100.00
64253;BME280;50592;52.958;-7.470;2022-12-07T00:42:31;101661.09;;;1.11;100.00
64253;BME280;50592;52.958;-7.470;2022-12-07T00:44:57;101661.03;;;1.15;100.00
64253;BME280;50592;52.958;-7.470;2022-12-07T00:47:23;101671.44;;;1.15;100.00
64253;BME280;50592;52.958;-7.470;2022-12-07T00:49:49;101674.16;;;1.10;100.00
64253;BME280;50592;52.958;-7.470;2022-12-07T00:52:14;101669.06;;;1.07;100.00
64253;BME280;50592;52.958;-7.470;2022-12-07T00:54:40;101671.81;;;1.02;100.00
64253;BME280;50592;52.958;-7.470;2022-12-07T00:57:06;101669.38;;;0.97;100.00
64253;BME280;50592;52.958;-7.470;2022-12-07T00:59:32;101665.13;;;0.95;100.00
64253;BME280;50592;52.958;-7.470;2022-12-07T01:01:57;101661.72;;;0.93;100.00
64253;BME280;50592;52.958;-7.470;2022-12-07T01:04:23;101658.25;;;0.94;100.00
64253;BME280;50592;52.958;-7.470;2022-12-07T01:06:49;101664.31;;;0.93;100.00
64253;BME280;50592;52.958;-7.470;2022-12-07T01:09:15;101672.25;;;0.90;100.00
64253;BME280;50592;52.958;-7.470;2022-12-07T01:11:41;101667.94;;;0.89;100.00
64253;BME280;50592;52.958;-7.470;2022-12-07T01:14:07;101665.41;;;0.87;100.00
64253;BME280;50592;52.958;-7.470;2022-12-07T01:16:34;101668.75;;;0.91;100.00
64253;BME280;50592;52.958;-7.470;2022-12-07T01:19:02;101667.91;;;0.90;100.00
64253;BME280;50592;52.958;-7.470;2022-12-07T01:21:34;101663.44;;;0.94;100.00
64253;BME280;50592;52.958;-7.470;2022-12-07T01:24:06;101665.03;;;0.98;100.00
64253;BME280;50592;52.958;-7.470;2022-12-07T01:26:32;101658.28;;;0.92;100.00
64253;BME280;50592;52.958;-7.470;2022-12-07T01:28:58;101659.88;;;0.96;100.00
64253;BME280;50592;52.958;-7.470;2022-12-07T01:31:27;101650.94;;;1.04;100.00
64253;BME280;50592;52.958;-7.470;2022-12-07T01:33:56;101652.44;;;1.11;100.00
64253;BME280;50592;52.958;-7.470;2022-12-07T01:36:28;101654.03;;;1.15;100.00
64253;BME280;50592;52.958;-7.470;2022-12-07T01:38:58;101648.78;;;1.17;100.00
64253;BME280;50592;52.958;-7.470;2022-12-07T01:41:26;101643.66;;;1.14;100.00
64253;BME280;50592;52.958;-7.470;2022-12-07T01:44:24;101639.59;;;1.06;100.00
64253;BME280;50592;52.958;-7.470;2022-12-07T01:49:26;101642.81;;;0.88;100.00
64253;BME280;50592;52.958;-7.470;2022-12-07T01:54:55;101643.06;;;0.80;100.00
64253;BME280;50592;52.958;-7.470;2022-12-07T01:57:22;101640.66;;;0.73;100.00
64253;BME280;50592;52.958;-7.470;2022-12-07T01:59:49;101637.22;;;0.73;100.00
64253;BME280;50592;52.958;-7.470;2022-12-07T02:02:23;101631.16;;;0.72;100.00
64253;BME280;50592;52.958;-7.470;2022-12-07T02:04:52;101636.31;;;0.74;100.00
64253;BME280;50592;52.958;-7.470;2022-12-07T02:07:20;101625.00;;;0.75;100.00
64253;BME280;50592;52.958;-7.470;2022-12-07T02:09:46;101627.59;;;0.75;100.00
64253;BME280;50592;52.958;-7.470;2022-12-07T02:12:11;101625.91;;;0.74;100.00
64253;BME280;50592;52.958;-7.470;2022-12-07T02:14:37;101621.66;;;0.71;100.00
64253;BME280;50592;52.958;-7.470;2022-12-07T02:17:19;101619.06;;;0.71;100.00
64253;BME280;50592;52.958;-7.470;2022-12-07T02:20:08;101623.66;;;0.63;100.00
64253;BME280;50592;52.958;-7.470;2022-12-07T02:23:00;101621.34;;;0.54;100.00
64253;BME280;50592;52.958;-7.470;2022-12-07T02:28:05;101611.81;;;0.26;100.00
64253;BME280;50592;52.958;-7.470;2022-12-07T02:30:35;101620.63;;;0.21;100.00
64253;BME280;50592;52.958;-7.470;2022-12-07T02:33:19;101614.59;;;0.19;100.00
64253;BME280;50592;52.958;-7.470;2022-12-07T02:36:13;101612.19;;;0.13;100.00
64253;BME280;50592;52.958;-7.470;2022-12-07T02:39:16;101612.16;;;0.15;100.00
64253;BME280;50592;52.958;-7.470;2022-12-07T02:41:47;101615.63;;;0.15;100.00
64253;BME280;50592;52.958;-7.470;2022-12-07T02:44:17;101610.50;;;0.12;100.00
64253;BME280;50592;52.958;-7.470;2022-12-07T02:46:56;101606.84;;;0.18;100.00
64253;BME280;50592;52.958;-7.470;2022-12-07T02:49:24;101604.81;;;0.28;100.00
64253;BME280;50592;52.958;-7.470;2022-12-07T02:51:52;101602.88;;;0.34;100.00
64253;BME280;50592;52.958;-7.470;2022-12-07T02:54:20;101600.13;;;0.39;100.00
64253;BME280;50592;52.958;-7.470;2022-12-07T03:07:48;101590.28;;;0.49;100.00
64253;BME280;50592;52.958;-7.470;2022-12-07T03:10:25;101583.13;;;0.56;100.00
64253;BME280;50592;52.958;-7.470;2022-12-07T03:13:05;101585.63;;;0.59;100.00
64253;BME280;50592;52.958;-7.470;2022-12-07T03:15:49;101587.34;;;0.60;100.00
64253;BME280;50592;52.958;-7.470;2022-12-07T03:18:23;101583.91;;;0.58;100.00
64253;BME280;50592;52.958;-7.470;2022-12-07T03:20:51;101587.38;;;0.58;100.00
64253;BME280;50592;52.958;-7.470;2022-12-07T03:23:19;101583.88;;;0.59;100.00
64253;BME280;50592;52.958;-7.470;2022-12-07T03:25:50;101578.78;;;0.56;100.00
64253;BME280;50592;52.958;-7.470;2022-12-07T03:28:21;101583.13;;;0.56;100.00
64253;BME280;50592;52.958;-7.470;2022-12-07T03:30:57;101581.41;;;0.55;100.00
64253;BME280;50592;52.958;-7.470;2022-12-07T03:33:49;101581.38;;;0.56;100.00
64253;BME280;50592;52.958;-7.470;2022-12-07T03:39:28;101583.91;;;0.58;100.00
64253;BME280;50592;52.958;-7.470;2022-12-07T03:41:58;101587.28;;;0.61;100.00
64253;BME280;50592;52.958;-7.470;2022-12-07T03:44:26;101579.31;;;0.66;100.00
64253;BME280;50592;52.958;-7.470;2022-12-07T03:47:05;101580.75;;;0.75;100.00
64253;BME280;50592;52.958;-7.470;2022-12-07T03:49:52;101574.50;;;0.81;100.00
64253;BME280;50592;52.958;-7.470;2022-12-07T03:57:25;101577.81;;;0.86;100.00
64253;BME280;50592;52.958;-7.470;2022-12-07T03:59:54;101571.09;;;0.79;100.00
64253;BME280;50592;52.958;-7.470;2022-12-07T04:02:22;101574.00;;;0.69;100.00
64253;BME280;50592;52.958;-7.470;2022-12-07T04:04:49;101571.63;;;0.63;100.00
64253;BME280;50592;52.958;-7.470;2022-12-07T04:07:15;101564.72;;;0.62;100.00
64253;BME280;50592;52.958;-7.470;2022-12-07T04:09:42;101570.81;;;0.61;100.00
64253;BME280;50592;52.958;-7.470;2022-12-07T04:12:07;101562.22;;;0.59;100.00
64253;BME280;50592;52.958;-7.470;2022-12-07T04:14:33;101564.06;;;0.55;100.00
64253;BME280;50592;52.958;-7.470;2022-12-07T04:16:59;101566.72;;;0.54;100.00
64253;BME280;50592;52.958;-7.470;2022-12-07T04:19:30;101561.56;;;0.52;100.00
64253;BME280;50592;52.958;-7.470;2022-12-07T04:21:58;101563.25;;;0.53;100.00
64253;BME280;50592;52.958;-7.470;2022-12-07T04:24:25;101560.56;;;0.56;100.00
64253;BME280;50592;52.958;-7.470;2022-12-07T04:26:51;101565.66;;;0.59;100.00
64253;BME280;50592;52.958;-7.470;2022-12-07T04:29:17;101561.22;;;0.63;100.00
64253;BME280;50592;52.958;-7.470;2022-12-07T04:31:43;101556.72;;;0.68;100.00
64253;BME280;50592;52.958;-7.470;2022-12-07T04:34:10;101555.78;;;0.69;100.00
64253;BME280;50592;52.958;-7.470;2022-12-07T04:36:36;101562.41;;;0.78;100.00
64253;BME280;50592;52.958;-7.470;2022-12-07T04:39:03;101560.53;;;0.83;100.00
64253;BME280;50592;52.958;-7.470;2022-12-07T04:41:28;101560.53;;;0.83;100.00
64253;BME280;50592;52.958;-7.470;2022-12-07T04:43:55;101554.63;;;0.78;100.00
64253;BME280;50592;52.958;-7.470;2022-12-07T04:46:23;101550.84;;;0.61;100.00
64253;BME280;50592;52.958;-7.470;2022-12-07T04:48:50;101556.31;;;0.54;100.00
64253;BME280;50592;52.958;-7.470;2022-12-07T04:51:23;101545.81;;;0.57;100.00
64253;BME280;50592;52.958;-7.470;2022-12-07T04:53:49;101550.84;;;0.61;100.00
64253;BME280;50592;52.958;-7.470;2022-12-07T04:56:16;101546.25;;;0.70;100.00
64253;BME280;50592;52.958;-7.470;2022-12-07T04:58:44;101546.13;;;0.73;100.00
64253;BME280;50592;52.958;-7.470;2022-12-07T05:01:10;101544.34;;;0.73;100.00
64253;BME280;50592;52.958;-7.470;2022-12-07T05:03:36;101546.09;;;0.74;100.00
64253;BME280;50592;52.958;-7.470;2022-12-07T05:06:03;101545.31;;;0.71;100.00
64253;BME280;50592;52.958;-7.470;2022-12-07T05:08:30;101540.22;;;0.68;100.00
64253;BME280;50592;52.958;-7.470;2022-12-07T05:10:55;101543.16;;;0.58;100.00
64253;BME280;50592;52.958;-7.470;2022-12-07T05:13:21;101542.50;;;0.52;100.00
64253;BME280;50592;52.958;-7.470;2022-12-07T05:15:48;101534.03;;;0.45;100.00
64253;BME280;50592;52.958;-7.470;2022-12-07T05:18:15;101547.09;;;0.43;100.00
64253;BME280;50592;52.958;-7.470;2022-12-07T05:20:41;101539.50;;;0.37;100.00
64253;BME280;50592;52.958;-7.470;2022-12-07T05:23:07;101536.91;;;0.37;100.00
64253;BME280;50592;52.958;-7.470;2022-12-07T05:25:33;101536.84;;;0.39;100.00
64253;BME280;50592;52.958;-7.470;2022-12-07T05:27:59;101542.00;;;0.40;100.00
64253;BME280;50592;52.958;-7.470;2022-12-07T05:30:26;101540.25;;;0.41;100.00
64253;BME280;50592;52.958;-7.470;2022-12-07T05:32:52;101534.34;;;0.35;100.00
64253;BME280;50592;52.958;-7.470;2022-12-07T05:35:18;101530.13;;;0.33;100.00
64253;BME280;50592;52.958;-7.470;2022-12-07T05:37:45;101532.75;;;0.31;100.00
64253;BME280;50592;52.958;-7.470;2022-12-07T05:40:13;101534.41;;;0.34;100.00
64253;BME280;50592;52.958;-7.470;2022-12-07T05:42:39;101530.97;;;0.33;100.00
64253;BME280;50592;52.958;-7.470;2022-12-07T05:45:07;101530.97;;;0.33;100.00
64253;BME280;50592;52.958;-7.470;2022-12-07T05:47:33;101530.97;;;0.33;100.00
64253;BME280;50592;52.958;-7.470;2022-12-07T05:49:58;101524.75;;;0.38;100.00
64253;BME280;50592;52.958;-7.470;2022-12-07T05:52:24;101527.34;;;0.38;100.00
64253;BME280;50592;52.958;-7.470;2022-12-07T05:54:50;101523.94;;;0.35;100.00
64253;BME280;50592;52.958;-7.470;2022-12-07T05:57:16;101525.66;;;0.36;100.00
64253;BME280;50592;52.958;-7.470;2022-12-07T05:59:42;101530.88;;;0.36;100.00
64253;BME280;50592;52.958;-7.470;2022-12-07T06:02:11;101527.34;;;0.38;100.00
64253;BME280;50592;52.958;-7.470;2022-12-07T06:04:39;101520.41;;;0.38;100.00
64253;BME280;50592;52.958;-7.470;2022-12-07T06:07:06;101526.28;;;0.43;100.00
64253;BME280;50592;52.958;-7.470;2022-12-07T06:09:32;101520.97;;;0.46;100.00
64253;BME280;50592;52.958;-7.470;2022-12-07T06:11:59;101519.19;;;0.48;100.00
64253;BME280;50592;52.958;-7.470;2022-12-07T06:14:44;101514.75;;;0.52;100.00
64253;BME280;50592;52.958;-7.470;2022-12-07T06:17:11;101522.50;;;0.54;100.00
64253;BME280;50592;52.958;-7.470;2022-12-07T06:19:38;101520.66;;;0.57;100.00
64253;BME280;50592;52.958;-7.470;2022-12-07T06:22:04;101525.75;;;0.60;100.00
64253;BME280;50592;52.958;-7.470;2022-12-07T06:24:30;101518.78;;;0.61;100.00
64253;BME280;50592;52.958;-7.470;2022-12-07T06:26:57;101521.38;;;0.61;100.00
64253;BME280;50592;52.958;-7.470;2022-12-07T06:29:23;101523.16;;;0.60;100.00
64253;BME280;50592;52.958;-7.470;2022-12-07T06:31:49;101518.66;;;0.64;100.00
64253;BME280;50592;52.958;-7.470;2022-12-07T06:34:17;101517.94;;;0.60;100.00
64253;BME280;50592;52.958;-7.470;2022-12-07T06:36:43;101519.72;;;0.58;100.00
64253;BME280;50592;52.958;-7.470;2022-12-07T06:39:10;101523.31;;;0.54;100.00
64253;BME280;50592;52.958;-7.470;2022-12-07T06:41:36;101521.69;;;0.52;100.00
64253;BME280;50592;52.958;-7.470;2022-12-07T06:44:03;101515.84;;;0.45;100.00
64253;BME280;50592;52.958;-7.470;2022-12-07T06:46:29;101521.94;;;0.44;100.00
64253;BME280;50592;52.958;-7.470;2022-12-07T06:48:55;101520.16;;;0.46;100.00
64253;BME280;50592;52.958;-7.470;2022-12-07T06:51:21;101524.44;;;0.47;100.00
64253;BME280;50592;52.958;-7.470;2022-12-07T06:53:47;101526.19;;;0.46;100.00
64253;BME280;50592;52.958;-7.470;2022-12-07T06:56:12;101524.41;;;0.48;100.00
64253;BME280;50592;52.958;-7.470;2022-12-07T06:58:39;101522.59;;;0.51;100.00
64253;BME280;50592;52.958;-7.470;2022-12-07T07:01:13;101523.38;;;0.53;100.00
64253;BME280;50592;52.958;-7.470;2022-12-07T07:03:39;101522.53;;;0.52;100.00
64253;BME280;50592;52.958;-7.470;2022-12-07T07:06:06;101517.28;;;0.54;100.00
64253;BME280;50592;52.958;-7.470;2022-12-07T07:08:33;101518.97;;;0.55;100.00
64253;BME280;50592;52.958;-7.470;2022-12-07T07:10:59;101526.84;;;0.53;100.00
64253;BME280;50592;52.958;-7.470;2022-12-07T07:13:26;101520.06;;;0.49;100.00
64253;BME280;50592;52.958;-7.470;2022-12-07T07:15:52;101512.25;;;0.49;100.00
64253;BME280;50592;52.958;-7.470;2022-12-07T07:18:18;101513.94;;;0.50;100.00
64253;BME280;50592;52.958;-7.470;2022-12-07T07:20:44;101512.19;;;0.51;100.00
64253;BME280;50592;52.958;-7.470;2022-12-07T07:23:10;101512.97;;;0.53;100.00
64253;BME280;50592;52.958;-7.470;2022-12-07T07:25:35;101518.13;;;0.54;100.00
64253;BME280;50592;52.958;-7.470;2022-12-07T07:28:01;101514.75;;;0.52;100.00
64253;BME280;50592;52.958;-7.470;2022-12-07T07:30:27;101511.44;;;0.47;100.00
64253;BME280;50592;52.958;-7.470;2022-12-07T07:33:00;101513.06;;;0.49;100.00
64253;BME280;50592;52.958;-7.470;2022-12-07T07:35:28;101520.94;;;0.48;100.00
64253;BME280;50592;52.958;-7.470;2022-12-07T07:37:54;101516.47;;;0.52;100.00
64253;BME280;50592;52.958;-7.470;2022-12-07T07:40:20;101515.72;;;0.48;100.00
64253;BME280;50592;52.958;-7.470;2022-12-07T07:42:50;101510.69;;;0.43;100.00
64253;BME280;50592;52.958;-7.470;2022-12-07T07:45:17;101511.75;;;0.38;100.00
64253;BME280;50592;52.958;-7.470;2022-12-07T07:47:43;101518.03;;;0.32;100.00
64253;BME280;50592;52.958;-7.470;2022-12-07T07:50:09;101511.16;;;0.29;100.00
64253;BME280;50592;52.958;-7.470;2022-12-07T07:52:35;101508.84;;;0.20;100.00
64253;BME280;50592;52.958;-7.470;2022-12-07T07:55:01;101515.16;;;0.13;100.00
64253;BME280;50592;52.958;-7.470;2022-12-07T07:57:27;101510.84;;;0.11;100.00
64253;BME280;50592;52.958;-7.470;2022-12-07T07:59:53;101511.06;;;0.05;100.00
64253;BME280;50592;52.958;-7.470;2022-12-07T08:02:20;101510.06;;;0.09;100.00
64253;BME280;50592;52.958;-7.470;2022-12-07T08:04:47;101507.47;;;0.09;100.00
64253;BME280;50592;52.958;-7.470;2022-12-07T08:07:14;101502.31;;;0.08;100.00
64253;BME280;50592;52.958;-7.470;2022-12-07T08:09:39;101510.28;;;0.03;100.00
64253;BME280;50592;52.958;-7.470;2022-12-07T08:12:05;101516.34;;;0.02;100.00
64253;BME280;50592;52.958;-7.470;2022-12-07T08:14:32;101512.97;;;0.00;100.00
64253;BME280;50592;52.958;-7.470;2022-12-07T08:16:58;101517.31;;;-0.01;100.00
64253;BME280;50592;52.958;-7.470;2022-12-07T08:19:24;101513.75;;;0.02;100.00
64253;BME280;50592;52.958;-7.470;2022-12-07T08:21:50;101521.66;;;-0.01;100.00
64253;BME280;50592;52.958;-7.470;2022-12-07T08:24:15;101523.47;;;-0.05;100.00
64253;BME280;50592;52.958;-7.470;2022-12-07T08:26:42;101517.56;;;-0.08;100.00
64253;BME280;50592;52.958;-7.470;2022-12-07T08:29:08;101521.91;;;-0.09;100.00
64253;BME280;50592;52.958;-7.470;2022-12-07T08:31:34;101532.19;;;-0.06;100.00
64253;BME280;50592;52.958;-7.470;2022-12-07T08:33:59;101521.84;;;-0.07;100.00
64253;BME280;50592;52.958;-7.470;2022-12-07T08:36:26;101519.44;;;-0.14;100.00
64253;BME280;50592;52.958;-7.470;2022-12-07T08:38:52;101521.28;;;-0.17;100.00
64253;BME280;50592;52.958;-7.470;2022-12-07T08:41:18;101516.13;;;-0.19;100.00
64253;BME280;50592;52.958;-7.470;2022-12-07T08:43:44;101518.81;;;-0.22;100.00
64253;BME280;50592;52.958;-7.470;2022-12-07T08:46:20;101514.34;;;-0.17;100.00
64253;BME280;50592;52.958;-7.470;2022-12-07T08:48:54;101520.41;;;-0.16;100.00
64253;BME280;50592;52.958;-7.470;2022-12-07T08:51:22;101520.50;;;-0.19;100.00
64253;BME280;50592;52.958;-7.470;2022-12-07T08:53:49;101523.03;;;-0.18;100.00
64253;BME280;50592;52.958;-7.470;2022-12-07T08:56:16;101515.28;;;-0.19;100.00
64253;BME280;50592;52.958;-7.470;2022-12-07T08:58:42;101523.19;;;-0.22;100.00
64253;BME280;50592;52.958;-7.470;2022-12-07T09:01:09;101520.72;;;-0.27;100.00
64253;BME280;50592;52.958;-7.470;2022-12-07T09:03:35;101518.09;;;-0.26;100.00
64253;BME280;50592;52.958;-7.470;2022-12-07T09:06:01;101513.63;;;-0.22;100.00
64253;BME280;50592;52.958;-7.470;2022-12-07T09:08:40;101523.88;;;-0.17;100.00
64253;BME280;50592;52.958;-7.470;2022-12-07T09:11:08;101507.41;;;-0.16;100.00
64253;BME280;50592;52.958;-7.470;2022-12-07T09:13:33;101510.69;;;-0.11;100.00
64253;BME280;50592;52.958;-7.470;2022-12-07T09:15:59;101508.84;;;-0.07;100.00
64253;BME280;50592;52.958;-7.470;2022-12-07T09:18:25;101502.75;;;-0.06;100.00
64253;BME280;50592;52.958;-7.470;2022-12-07T09:20:51;101511.19;;;0.01;100.00
64253;BME280;50592;52.958;-7.470;2022-12-07T09:23:17;101506.66;;;0.07;100.00
64253;BME280;50592;52.958;-7.470;2022-12-07T09:25:43;101502.16;;;0.13;100.00
64253;BME280;50592;52.958;-7.470;2022-12-07T09:28:09;101503.72;;;0.18;100.00
64253;BME280;50592;52.958;-7.470;2022-12-07T09:30:35;101503.66;;;0.20;100.00
64253;BME280;50592;52.958;-7.470;2022-12-07T09:33:00;101498.41;;;0.21;100.00
64253;BME280;50592;52.958;-7.470;2022-12-07T09:35:26;101501.75;;;0.25;100.00
64253;BME280;50592;52.958;-7.470;2022-12-07T09:37:52;101504.25;;;0.28;100.00
64253;BME280;50592;52.958;-7.470;2022-12-07T09:40:20;101494.63;;;0.32;100.00
64253;BME280;50592;52.958;-7.470;2022-12-07T09:42:51;101501.56;;;0.31;100.00
64253;BME280;50592;52.958;-7.470;2022-12-07T09:47:57;101511.03;;;0.32;100.00
64253;BME280;50592;52.958;-7.470;2022-12-07T09:50:26;101505.03;;;0.32;100.00
64253;BME280;50592;52.958;-7.470;2022-12-07T09:52:54;101510.13;;;0.35;100.00
64253;BME280;50592;52.958;-7.470;2022-12-07T09:55:30;101509.16;;;0.38;100.00
64253;BME280;50592;52.958;-7.470;2022-12-07T09:57:57;101503.94;;;0.38;100.00
64253;BME280;50592;52.958;-7.470;2022-12-07T10:00:24;101501.09;;;0.45;100.00
64253;BME280;50592;52.958;-7.470;2022-12-07T10:02:59;101498.88;;;0.60;100.00
64253;BME280;50592;52.958;-7.470;2022-12-07T10:05:36;101497.69;;;0.69;100.00
64253;BME280;50592;52.958;-7.470;2022-12-07T10:08:03;101499.13;;;0.78;100.00
64253;BME280;50592;52.958;-7.470;2022-12-07T10:10:32;101501.22;;;0.92;100.00
64253;BME280;50592;52.958;-7.470;2022-12-07T10:13:00;101502.53;;;1.04;100.00
64253;BME280;50592;52.958;-7.470;2022-12-07T10:18:40;101503.50;;;1.25;100.00
64253;BME280;50592;52.958;-7.470;2022-12-07T10:23:41;101492.56;;;1.39;100.00
64253;BME280;50592;52.958;-7.470;2022-12-07T10:28:58;101488.47;;;1.56;100.00
64253;BME280;50592;52.958;-7.470;2022-12-07T10:31:24;101485.50;;;1.65;100.00
64253;BME280;50592;52.958;-7.470;2022-12-07T10:39:40;101471.16;;;1.98;100.00
64253;BME280;50592;52.958;-7.470;2022-12-07T10:44:44;101468.78;;;2.14;100.00
64253;BME280;50592;52.958;-7.470;2022-12-07T10:47:34;101470.81;;;2.28;100.00
64253;BME280;50592;52.958;-7.470;2022-12-07T10:55:34;101448.75;;;2.56;100.00
64253;BME280;50592;52.958;-7.470;2022-12-07T10:58:14;101447.50;;;2.65;100.00
64253;BME280;50592;52.958;-7.470;2022-12-07T11:11:54;101436.88;;;2.89;100.00
64253;BME280;50592;52.958;-7.470;2022-12-07T11:17:05;101424.31;;;2.97;100.00
64253;BME280;50592;52.958;-7.470;2022-12-07T11:25:27;101430.16;;;3.22;100.00
64253;BME280;50592;52.958;-7.470;2022-12-07T11:31:10;101421.06;;;3.31;100.00
64253;BME280;50592;52.958;-7.470;2022-12-07T11:34:15;101411.91;;;3.40;100.00
64253;BME280;50592;52.958;-7.470;2022-12-07T11:36:50;101411.47;;;3.49;100.00
64253;BME280;50592;52.958;-7.470;2022-12-07T11:41:47;101415.34;;;3.59;100.00
64253;BME280;50592;52.958;-7.470;2022-12-07T11:44:34;101415.94;;;3.47;100.00
64253;BME280;50592;52.958;-7.470;2022-12-07T11:47:09;101407.41;;;3.43;100.00
64253;BME280;50592;52.958;-7.470;2022-12-07T11:49:47;101407.69;;;3.37;100.00
64253;BME280;50592;52.958;-7.470;2022-12-07T11:55:19;101397.00;;;3.42;100.00
64253;BME280;50592;52.958;-7.470;2022-12-07T11:57:50;101401.88;;;3.50;100.00
64253;BME280;50592;52.958;-7.470;2022-12-07T12:00:17;101393.94;;;3.51;100.00
64253;BME280;50592;52.958;-7.470;2022-12-07T12:05:21;101385.50;;;3.64;100.00
64253;BME280;50592;52.958;-7.470;2022-12-07T12:07:55;101388.81;;;3.67;100.00
64253;BME280;50592;52.958;-7.470;2022-12-07T12:10:55;101379.81;;;3.73;100.00
64253;BME280;50592;52.958;-7.470;2022-12-07T12:14:01;101380.44;;;3.78;100.00
64253;BME280;50592;52.958;-7.470;2022-12-07T12:19:36;101357.28;;;3.88;100.00
64253;BME280;50592;52.958;-7.470;2022-12-07T12:22:15;101369.97;;;3.96;100.00
64253;BME280;50592;52.958;-7.470;2022-12-07T12:24:45;101354.53;;;3.91;100.00
64253;BME280;50592;52.958;-7.470;2022-12-07T12:27:35;101357.84;;;3.95;100.00
64253;BME280;50592;52.958;-7.470;2022-12-07T12:30:05;101354.53;;;3.91;100.00
64253;BME280;50592;52.958;-7.470;2022-12-07T12:32:38;101355.44;;;3.90;100.00
64253;BME280;50592;52.958;-7.470;2022-12-07T12:35:31;101341.44;;;3.91;100.00
64253;BME280;50592;52.958;-7.470;2022-12-07T12:40:43;101330.28;;;3.88;100.00
64253;BME280;50592;52.958;-7.470;2022-12-07T12:46:35;101326.63;;;3.74;100.00
64253;BME280;50592;52.958;-7.470;2022-12-07T12:49:32;101312.28;;;3.81;100.00
64253;BME280;50592;52.958;-7.470;2022-12-07T12:52:01;101313.72;;;3.87;100.00
64253;BME280;50592;52.958;-7.470;2022-12-07T12:54:34;101320.50;;;3.91;100.00
64253;BME280;50592;52.958;-7.470;2022-12-07T12:57:26;101315.03;;;3.96;100.00
64253;BME280;50592;52.958;-7.470;2022-12-07T13:10:33;101291.72;;;4.09;100.00
64253;BME280;50592;52.958;-7.470;2022-12-07T13:26:22;101288.44;;;4.21;100.00
64253;BME280;50592;52.958;-7.470;2022-12-07T13:34:29;101281.19;;;4.27;100.00
64253;BME280;50592;52.958;-7.470;2022-12-07T13:36:56;101273.59;;;4.22;100.00
64253;BME280;50592;52.958;-7.470;2022-12-07T13:39:26;101284.88;;;4.22;100.00
64253;BME280;50592;52.958;-7.470;2022-12-07T13:41:57;101283.38;;;4.18;100.00
64253;BME280;50592;52.958;-7.470;2022-12-07T13:44:26;101283.28;;;4.20;100.00
64253;BME280;50592;52.958;-7.470;2022-12-07T13:49:31;101279.56;;;4.24;100.00
64253;BME280;50592;52.958;-7.470;2022-12-07T13:57:12;101282.00;;;4.11;100.00
64253;BME280;50592;52.958;-7.470;2022-12-07T13:59:38;101271.59;;;4.09;100.00
64253;BME280;50592;52.958;-7.470;2022-12-07T14:04:49;101266.38;;;4.09;100.00
64253;BME280;50592;52.958;-7.470;2022-12-07T14:07:21;101257.44;;;4.14;100.00
64253;BME280;50592;52.958;-7.470;2022-12-07T14:10:05;101254.75;;;4.15;100.00
64253;BME280;50592;52.958;-7.470;2022-12-07T14:12:32;101260.97;;;4.13;100.00
64253;BME280;50592;52.958;-7.470;2022-12-07T14:15:02;101248.91;;;4.10;100.00
64253;BME280;50592;52.958;-7.470;2022-12-07T14:17:29;101248.81;;;4.12;100.00
64253;BME280;50592;52.958;-7.470;2022-12-07T14:19:57;101251.28;;;4.15;100.00
64253;BME280;50592;52.958;-7.470;2022-12-07T14:22:32;101239.13;;;4.14;100.00
64253;BME280;50592;52.958;-7.470;2022-12-07T14:25:01;101238.38;;;4.12;100.00
64253;BME280;50592;52.958;-7.470;2022-12-07T14:27:33;101236.78;;;4.09;100.00
64253;BME280;50592;52.958;-7.470;2022-12-07T14:30:01;101233.72;;;4.01;100.00
64253;BME280;50592;52.958;-7.470;2022-12-07T14:32:29;101226.88;;;3.98;100.00
64253;BME280;50592;52.958;-7.470;2022-12-07T14:35:17;101223.41;;;3.97;100.00
64253;BME280;50592;52.958;-7.470;2022-12-07T14:37:44;101223.31;;;3.99;100.00
64253;BME280;50592;52.958;-7.470;2022-12-07T14:40:20;101217.06;;;4.02;100.00
64253;BME280;50592;52.958;-7.470;2022-12-07T14:42:48;101214.63;;;3.99;100.00
64253;BME280;50592;52.958;-7.470;2022-12-07T14:45:20;101211.94;;;4.00;100.00
64253;BME280;50592;52.958;-7.470;2022-12-07T14:47:47;101211.94;;;4.00;100.00
64253;BME280;50592;52.958;-7.470;2022-12-07T14:50:17;101205.63;;;4.04;100.00
64253;BME280;50592;52.958;-7.470;2022-12-07T14:52:47;101209.31;;;4.00;100.00
64253;BME280;50592;52.958;-7.470;2022-12-07T14:55:28;101205.09;;;3.97;100.00
64253;BME280;50592;52.958;-7.470;2022-12-07T14:57:55;101208.88;;;3.92;100.00
64253;BME280;50592;52.958;-7.470;2022-12-07T15:00:23;101208.22;;;3.88;100.00
64253;BME280;50592;52.958;-7.470;2022-12-07T15:02:49;101205.94;;;3.82;100.00